createdAt,value
2019-02-21T00:00:57.275Z,6.8
2019-02-21T00:01:57.987Z,6.9
2019-02-21T00:02:58.657Z,6.8
2019-02-21T00:03:59.327Z,6.9
2019-02-21T00:05:00.005Z,6.8
2019-02-21T00:06:00.669Z,6.8
2019-02-21T00:07:01.338Z,6.9
2019-02-21T00:08:02.009Z,6.9
2019-02-21T00:09:02.679Z,6.9
2019-02-21T00:10:03.350Z,6.8
2019-02-21T00:11:04.020Z,6.8
2019-02-21T00:12:04.693Z,6.9
2019-02-21T00:13:05.363Z,6.9
2019-02-21T00:14:06.040Z,6.8
2019-02-21T00:15:06.754Z,6.8
2019-02-21T00:16:07.424Z,6.9
2019-02-21T00:17:08.144Z,6.8
2019-02-21T00:18:08.815Z,6.9
2019-02-21T00:19:09.486Z,6.9
2019-02-21T00:20:10.205Z,6.9
2019-02-21T00:21:10.878Z,6.8
2019-02-21T00:22:11.548Z,6.9
2019-02-21T00:23:12.220Z,6.9
2019-02-21T00:24:12.940Z,6.9
2019-02-21T00:25:13.609Z,6.9
2019-02-21T00:26:14.309Z,6.9
2019-02-21T00:27:14.951Z,6.8
2019-02-21T00:28:15.622Z,6.9
2019-02-21T00:29:16.292Z,6.8
2019-02-21T00:30:16.963Z,6.8
2019-02-21T00:31:17.635Z,6.9
2019-02-21T00:32:18.354Z,6.9
2019-02-21T00:33:19.024Z,6.8
2019-02-21T00:34:19.695Z,6.9
2019-02-21T00:35:20.370Z,6.8
2019-02-21T00:36:21.042Z,6.8
2019-02-21T00:37:21.707Z,6.8
2019-02-21T00:38:22.380Z,6.8
2019-02-21T00:39:23.049Z,6.9
2019-02-21T00:40:23.719Z,6.9
2019-02-21T00:41:24.389Z,6.9
2019-02-21T00:42:25.066Z,6.9
2019-02-21T00:43:25.734Z,6.9
2019-02-21T00:44:26.454Z,6.8
2019-02-21T00:45:27.124Z,6.8
2019-02-21T00:46:27.795Z,6.9
2019-02-21T00:47:28.468Z,6.9
2019-02-21T00:48:29.138Z,7.0
2019-02-21T00:49:29.807Z,7.0
2019-02-21T00:50:30.486Z,6.9
2019-02-21T00:51:31.146Z,6.9
2019-02-21T00:52:31.821Z,6.9
2019-02-21T00:53:32.490Z,7.0
2019-02-21T00:54:33.159Z,7.0
2019-02-21T00:55:33.844Z,6.9
2019-02-21T00:56:34.549Z,6.9
2019-02-21T00:57:35.218Z,7.0
2019-02-21T00:58:35.890Z,7.1
2019-02-21T00:59:36.564Z,7.0
2019-02-21T01:00:46.097Z,7.0
2019-02-21T01:01:38.895Z,7.1
2019-02-21T01:02:39.570Z,7.1
2019-02-21T01:03:40.231Z,7.2
2019-02-21T01:04:40.902Z,7.0
2019-02-21T01:05:41.573Z,7.1
2019-02-21T01:06:42.248Z,7.1
2019-02-21T01:07:42.914Z,7.1
2019-02-21T01:08:43.584Z,7.1
2019-02-21T01:09:44.255Z,7.0
2019-02-21T01:10:44.925Z,7.0
2019-02-21T01:11:45.595Z,7.1
2019-02-21T01:12:46.314Z,7.2
2019-02-21T01:13:46.984Z,7.1
2019-02-21T01:14:47.655Z,7.0
2019-02-21T01:15:48.325Z,7.1
2019-02-21T01:16:48.997Z,7.1
2019-02-21T01:17:49.671Z,7.2
2019-02-21T01:18:50.340Z,7.1
2019-02-21T01:19:51.010Z,7.2
2019-02-21T01:20:51.681Z,7.2
2019-02-21T01:21:52.350Z,7.1
2019-02-21T01:22:53.022Z,7.2
2019-02-21T01:23:53.717Z,7.1
2019-02-21T01:24:54.364Z,7.2
2019-02-21T01:25:55.084Z,7.2
2019-02-21T01:26:55.757Z,7.2
2019-02-21T01:27:56.429Z,7.2
2019-02-21T01:28:57.095Z,7.2
2019-02-21T01:29:57.766Z,7.1
2019-02-21T01:30:58.438Z,7.2
2019-02-21T01:31:59.109Z,7.2
2019-02-21T01:32:59.788Z,7.1
2019-02-21T01:34:00.503Z,7.2
2019-02-21T01:35:01.173Z,7.1
2019-02-21T01:36:01.890Z,7.1
2019-02-21T01:37:02.562Z,7.1
2019-02-21T01:38:03.234Z,7.2
2019-02-21T01:39:03.903Z,7.2
2019-02-21T01:40:04.575Z,7.2
2019-02-21T01:41:05.245Z,7.2
2019-02-21T01:42:05.916Z,7.1
2019-02-21T01:43:06.588Z,7.2
2019-02-21T01:44:07.306Z,7.2
2019-02-21T01:45:07.982Z,7.2
2019-02-21T01:46:08.650Z,7.2
2019-02-21T01:47:09.319Z,7.1
2019-02-21T01:48:09.989Z,7.2
2019-02-21T01:49:10.716Z,7.2
2019-02-21T01:50:11.337Z,7.2
2019-02-21T01:51:12.008Z,7.1
2019-02-21T01:52:12.678Z,7.1
2019-02-21T01:53:13.349Z,7.2
2019-02-21T01:54:14.021Z,7.1
2019-02-21T01:55:14.700Z,7.1
2019-02-21T01:56:15.361Z,7.2
2019-02-21T01:57:16.031Z,7.1
2019-02-21T01:58:16.753Z,7.1
2019-02-21T01:59:17.422Z,7.0
2019-02-21T02:00:18.093Z,7.1
2019-02-21T02:01:18.767Z,7.1
2019-02-21T02:02:19.436Z,7.2
2019-02-21T02:03:20.154Z,7.2
2019-02-21T02:04:20.826Z,7.2
2019-02-21T02:05:21.498Z,7.1
2019-02-21T02:06:22.168Z,7.1
2019-02-21T02:07:22.840Z,7.1
2019-02-21T02:08:23.510Z,7.1
2019-02-21T02:09:24.180Z,7.1
2019-02-21T02:10:24.851Z,7.1
2019-02-21T02:11:25.523Z,7.2
2019-02-21T02:12:26.193Z,7.2
2019-02-21T02:13:26.863Z,7.2
2019-02-21T02:14:27.534Z,7.1
2019-02-21T02:15:28.209Z,7.2
2019-02-21T02:16:28.877Z,7.2
2019-02-21T02:17:29.547Z,7.2
2019-02-21T02:18:30.220Z,7.1
2019-02-21T02:19:30.890Z,7.2
2019-02-21T02:20:31.561Z,7.1
2019-02-21T02:21:32.233Z,7.2
2019-02-21T02:22:32.905Z,7.2
2019-02-21T02:23:33.574Z,7.2
2019-02-21T02:24:34.244Z,7.2
2019-02-21T02:25:34.915Z,7.2
2019-02-21T02:26:35.586Z,7.2
2019-02-21T02:27:36.259Z,7.1
2019-02-21T02:28:36.927Z,7.2
2019-02-21T02:29:37.599Z,7.1
2019-02-21T02:30:38.269Z,7.1
2019-02-21T02:31:38.938Z,7.2
2019-02-21T02:32:39.613Z,7.2
2019-02-21T02:33:40.281Z,7.2
2019-02-21T02:34:40.950Z,7.2
2019-02-21T02:35:41.620Z,7.3
2019-02-21T02:36:42.291Z,7.2
2019-02-21T02:37:42.962Z,7.3
2019-02-21T02:38:43.633Z,7.2
2019-02-21T02:39:44.302Z,7.1
2019-02-21T02:40:44.972Z,7.2
2019-02-21T02:41:45.643Z,7.1
2019-02-21T02:42:46.314Z,7.1
2019-02-21T02:43:46.983Z,7.2
2019-02-21T02:44:47.656Z,7.1
2019-02-21T02:45:48.325Z,7.2
2019-02-21T02:46:48.997Z,7.2
2019-02-21T02:47:49.669Z,7.2
2019-02-21T02:48:50.346Z,7.2
2019-02-21T02:49:51.083Z,7.2
2019-02-21T02:50:51.771Z,7.2
2019-02-21T02:51:52.442Z,7.1
2019-02-21T02:52:53.111Z,7.2
2019-02-21T02:53:53.782Z,7.2
2019-02-21T02:54:54.450Z,7.1
2019-02-21T02:55:55.129Z,7.2
2019-02-21T02:56:55.796Z,7.2
2019-02-21T02:57:56.470Z,7.1
2019-02-21T02:58:57.186Z,7.2
2019-02-21T02:59:57.857Z,7.3
2019-02-21T03:00:58.532Z,7.2
2019-02-21T03:01:59.196Z,7.2
2019-02-21T03:02:59.868Z,7.2
2019-02-21T03:04:00.538Z,7.1
2019-02-21T03:05:01.220Z,7.2
2019-02-21T03:06:01.880Z,7.2
2019-02-21T03:07:02.550Z,7.2
2019-02-21T03:08:03.221Z,7.2
2019-02-21T03:09:03.908Z,7.2
2019-02-21T03:10:04.579Z,7.2
2019-02-21T03:11:05.249Z,7.2
2019-02-21T03:12:05.925Z,7.2
2019-02-21T03:13:06.679Z,7.3
2019-02-21T03:14:07.315Z,7.2
2019-02-21T03:15:07.989Z,7.2
2019-02-21T03:16:08.661Z,7.2
2019-02-21T03:17:09.329Z,7.1
2019-02-21T03:18:10.052Z,7.2
2019-02-21T03:19:10.774Z,7.2
2019-02-21T03:20:11.442Z,7.2
2019-02-21T03:21:12.114Z,7.2
2019-02-21T03:22:12.787Z,7.2
2019-02-21T03:23:13.456Z,7.2
2019-02-21T03:24:14.134Z,7.2
2019-02-21T03:25:14.849Z,7.3
2019-02-21T03:26:15.518Z,7.3
2019-02-21T03:27:16.190Z,7.2
2019-02-21T03:28:16.860Z,7.2
2019-02-21T03:29:17.538Z,7.2
2019-02-21T03:30:18.202Z,7.3
2019-02-21T03:31:18.874Z,7.2
2019-02-21T03:32:19.619Z,7.3
2019-02-21T03:33:20.270Z,7.2
2019-02-21T03:34:20.959Z,7.2
2019-02-21T03:35:21.610Z,7.2
2019-02-21T03:36:22.325Z,7.2
2019-02-21T03:37:22.996Z,7.2
2019-02-21T03:38:23.667Z,7.4
2019-02-21T03:39:24.338Z,7.2
2019-02-21T03:40:25.008Z,7.2
2019-02-21T03:41:25.680Z,7.3
2019-02-21T03:42:26.356Z,7.2
2019-02-21T03:43:27.021Z,7.2
2019-02-21T03:44:27.776Z,7.2
2019-02-21T03:45:28.407Z,7.2
2019-02-21T03:46:29.078Z,7.2
2019-02-21T03:47:29.748Z,7.2
2019-02-21T03:48:30.423Z,7.2
2019-02-21T03:49:31.098Z,7.2
2019-02-21T03:50:31.763Z,7.3
2019-02-21T03:51:32.432Z,7.2
2019-02-21T03:52:33.103Z,7.4
2019-02-21T03:53:33.784Z,7.3
2019-02-21T03:54:34.500Z,7.3
2019-02-21T03:55:35.213Z,7.2
2019-02-21T03:56:35.884Z,7.3
2019-02-21T03:57:36.557Z,7.2
2019-02-21T03:58:37.273Z,7.3
2019-02-21T03:59:37.944Z,7.3
2019-02-21T04:00:38.613Z,7.3
2019-02-21T04:01:39.285Z,7.2
2019-02-21T04:02:39.957Z,7.2
2019-02-21T04:03:40.629Z,7.2
2019-02-21T04:04:41.300Z,7.2
2019-02-21T04:05:41.969Z,7.2
2019-02-21T04:06:42.639Z,7.2
2019-02-21T04:07:43.310Z,7.3
2019-02-21T04:08:43.982Z,7.2
2019-02-21T04:09:44.702Z,7.3
2019-02-21T04:10:45.372Z,7.2
2019-02-21T04:11:46.049Z,7.2
2019-02-21T04:12:46.716Z,7.2
2019-02-21T04:13:47.388Z,7.3
2019-02-21T04:14:48.056Z,7.1
2019-02-21T04:15:48.731Z,7.2
2019-02-21T04:16:49.400Z,7.2
2019-02-21T04:17:50.120Z,7.2
2019-02-21T04:18:50.818Z,7.2
2019-02-21T04:19:51.490Z,7.2
2019-02-21T04:20:52.159Z,7.3
2019-02-21T04:21:52.831Z,7.2
2019-02-21T04:22:53.503Z,7.2
2019-02-21T04:23:54.249Z,7.3
2019-02-21T04:24:54.876Z,7.2
2019-02-21T04:25:55.547Z,7.3
2019-02-21T04:26:56.219Z,7.1
2019-02-21T04:27:56.891Z,7.2
2019-02-21T04:28:57.562Z,7.2
2019-02-21T04:29:58.233Z,7.2
2019-02-21T04:30:58.903Z,7.1
2019-02-21T04:31:59.575Z,7.1
2019-02-21T04:33:00.245Z,7.1
2019-02-21T04:34:00.920Z,7.1
2019-02-21T04:35:01.587Z,7.1
2019-02-21T04:36:02.259Z,7.0
2019-02-21T04:37:02.931Z,7.1
2019-02-21T04:38:03.680Z,7.1
2019-02-21T04:39:04.354Z,7.1
2019-02-21T04:40:05.025Z,7.2
2019-02-21T04:41:05.695Z,7.1
2019-02-21T04:42:06.365Z,7.0
2019-02-21T04:43:07.037Z,7.1
2019-02-21T04:44:07.710Z,7.1
2019-02-21T04:45:08.378Z,7.1
2019-02-21T04:46:09.097Z,7.1
2019-02-21T04:47:09.768Z,7.1
2019-02-21T04:48:10.438Z,7.0
2019-02-21T04:49:11.109Z,7.1
2019-02-21T04:50:11.780Z,7.1
2019-02-21T04:51:12.451Z,7.1
2019-02-21T04:52:13.150Z,7.0
2019-02-21T04:53:13.847Z,7.1
2019-02-21T04:54:14.516Z,7.1
2019-02-21T04:55:15.185Z,7.1
2019-02-21T04:56:15.856Z,7.0
2019-02-21T04:57:16.529Z,7.1
2019-02-21T04:59:06.505Z,7.1
2019-02-21T05:00:05.318Z,7.1
2019-02-21T05:01:05.951Z,7.0
2019-02-21T05:02:06.622Z,6.9
2019-02-21T05:03:07.291Z,6.9
2019-02-21T05:04:07.962Z,6.9
2019-02-21T05:05:08.631Z,7.0
2019-02-21T05:06:09.309Z,7.0
2019-02-21T05:07:09.979Z,6.9
2019-02-21T05:08:10.649Z,6.9
2019-02-21T05:09:11.315Z,6.9
2019-02-21T05:10:12.035Z,7.0
2019-02-21T05:11:12.704Z,6.9
2019-02-21T05:12:13.374Z,7.0
2019-02-21T05:13:14.051Z,7.0
2019-02-21T05:14:14.717Z,7.0
2019-02-21T05:15:15.387Z,6.9
2019-02-21T05:16:16.057Z,7.0
2019-02-21T05:17:16.730Z,6.8
2019-02-21T05:18:17.399Z,7.0
2019-02-21T05:19:18.071Z,6.9
2019-02-21T05:20:18.742Z,7.0
2019-02-21T05:21:19.413Z,6.9
2019-02-21T05:22:20.084Z,7.0
2019-02-21T05:23:20.754Z,6.9
2019-02-21T05:24:21.424Z,6.9
2019-02-21T05:25:22.103Z,6.9
2019-02-21T05:26:22.766Z,6.9
2019-02-21T05:27:23.438Z,6.9
2019-02-21T05:28:24.108Z,6.9
2019-02-21T05:29:24.781Z,6.9
2019-02-21T05:30:25.483Z,6.9
2019-02-21T05:31:26.120Z,6.8
2019-02-21T05:32:26.792Z,6.9
2019-02-21T05:33:27.498Z,6.8
2019-02-21T05:34:28.181Z,6.8
2019-02-21T05:35:31.339Z,6.9
2019-02-21T05:36:30.513Z,6.9
2019-02-21T05:37:31.186Z,6.8
2019-02-21T05:38:31.857Z,6.9
2019-02-21T05:39:32.527Z,6.9
2019-02-21T05:40:33.200Z,6.8
2019-02-21T05:41:33.874Z,6.8
2019-02-21T05:42:34.541Z,6.8
2019-02-21T05:43:37.201Z,6.8
2019-02-21T05:44:36.918Z,6.7
2019-02-21T05:45:37.619Z,6.7
2019-02-21T05:46:38.307Z,6.7
2019-02-21T05:47:38.978Z,6.6
2019-02-21T05:48:40.314Z,6.7
2019-02-21T05:49:40.360Z,6.6
2019-02-21T05:50:41.033Z,6.5
2019-02-21T05:51:41.719Z,6.6
2019-02-21T05:52:42.374Z,6.6
2019-02-21T05:53:43.044Z,6.5
2019-02-21T05:54:43.714Z,6.5
2019-02-21T05:55:44.390Z,6.5
2019-02-21T05:56:45.056Z,6.5
2019-02-21T05:57:45.727Z,6.5
2019-02-21T05:58:46.407Z,6.5
2019-02-21T05:59:47.072Z,6.3
2019-02-21T06:00:47.743Z,6.5
2019-02-21T06:01:48.413Z,6.6
2019-02-21T06:02:53.514Z,6.5
2019-02-21T06:03:50.748Z,6.6
2019-02-21T06:04:52.103Z,6.5
2019-02-21T06:05:52.811Z,6.6
2019-02-21T06:06:53.488Z,6.6
2019-02-21T06:07:54.205Z,6.7
2019-02-21T06:08:54.881Z,6.6
2019-02-21T06:09:55.547Z,6.6
2019-02-21T06:10:56.220Z,6.7
2019-02-21T06:11:56.890Z,6.6
2019-02-21T06:12:59.968Z,6.7
2019-02-21T06:13:59.228Z,6.7
2019-02-21T06:14:59.894Z,6.8
2019-02-21T06:16:00.581Z,6.9
2019-02-21T06:17:01.281Z,6.9
2019-02-21T06:18:01.953Z,7.0
2019-02-21T06:19:02.624Z,7.0
2019-02-21T06:20:03.296Z,7.0
2019-02-21T06:21:03.981Z,7.0
2019-02-21T06:22:10.455Z,7.1
2019-02-21T06:23:06.308Z,7.2
2019-02-21T06:24:06.979Z,7.1
2019-02-21T06:25:07.656Z,7.2
2019-02-21T06:26:08.379Z,7.2
2019-02-21T06:27:09.049Z,7.2
2019-02-21T06:28:09.720Z,7.3
2019-02-21T06:29:10.393Z,7.3
2019-02-21T06:30:11.068Z,7.3
2019-02-21T06:31:11.740Z,7.4
2019-02-21T06:32:14.539Z,7.5
2019-02-21T06:33:14.080Z,7.4
2019-02-21T06:34:14.804Z,7.4
2019-02-21T06:35:15.483Z,7.6
2019-02-21T06:36:16.152Z,7.6
2019-02-21T06:37:16.826Z,7.7
2019-02-21T06:38:17.548Z,7.6
2019-02-21T06:39:18.221Z,7.8
2019-02-21T06:40:18.909Z,7.8
2019-02-21T06:41:19.630Z,7.8
2019-02-21T06:42:20.306Z,7.7
2019-02-21T06:43:21.062Z,7.8
2019-02-21T06:44:21.705Z,7.7
2019-02-21T06:45:22.378Z,7.8
2019-02-21T06:46:23.054Z,7.8
2019-02-21T06:47:23.728Z,7.8
2019-02-21T06:48:24.453Z,7.9
2019-02-21T06:49:32.450Z,7.9
2019-02-21T06:50:27.343Z,7.9
2019-02-21T06:51:27.508Z,8.0
2019-02-21T06:52:28.184Z,8.0
2019-02-21T06:53:28.859Z,8.0
2019-02-21T06:54:29.534Z,8.0
2019-02-21T06:55:30.207Z,8.0
2019-02-21T06:56:30.881Z,8.0
2019-02-21T06:57:31.556Z,8.0
2019-02-21T06:58:32.231Z,8.0
2019-02-21T06:59:42.234Z,8.0
2019-02-21T07:00:33.631Z,8.0
2019-02-21T07:01:34.299Z,8.0
2019-02-21T07:02:34.971Z,8.0
2019-02-21T07:03:35.667Z,8.0
2019-02-21T07:04:36.322Z,8.0
2019-02-21T07:05:37.112Z,8.0
2019-02-21T07:06:39.274Z,8.0
2019-02-21T07:07:39.415Z,7.9
2019-02-21T07:08:40.287Z,8.1
2019-02-21T07:09:40.805Z,8.0
2019-02-21T07:10:41.479Z,8.0
2019-02-21T07:11:42.155Z,7.9
2019-02-21T07:12:42.828Z,7.9
2019-02-21T07:13:43.502Z,8.0
2019-02-21T07:14:44.178Z,8.0
2019-02-21T07:15:44.853Z,7.9
2019-02-21T07:16:45.527Z,7.9
2019-02-21T07:17:49.405Z,7.9
2019-02-21T07:18:47.872Z,7.8
2019-02-21T07:19:48.550Z,7.8
2019-02-21T07:20:49.287Z,7.8
2019-02-21T07:21:49.984Z,7.9
2019-02-21T07:22:50.655Z,7.8
2019-02-21T07:23:51.332Z,7.8
2019-02-21T07:24:54.028Z,7.9
2019-02-21T07:25:53.673Z,7.9
2019-02-21T07:26:54.347Z,7.9
2019-02-21T07:27:55.075Z,7.9
2019-02-21T07:28:58.139Z,8.0
2019-02-21T07:29:56.518Z,8.0
2019-02-21T07:30:57.240Z,8.1
2019-02-21T07:31:57.916Z,8.1
2019-02-21T07:32:58.591Z,8.1
2019-02-21T07:34:01.605Z,8.2
2019-02-21T07:34:59.984Z,8.3
2019-02-21T07:36:00.659Z,8.3
2019-02-21T07:37:01.337Z,8.2
2019-02-21T07:38:02.014Z,8.3
2019-02-21T07:39:16.207Z,8.4
2019-02-21T07:40:04.358Z,8.5
2019-02-21T07:41:05.115Z,8.6
2019-02-21T07:42:05.755Z,8.6
2019-02-21T07:43:06.431Z,8.7
2019-02-21T07:44:12.029Z,8.8
2019-02-21T07:45:08.888Z,8.9
2019-02-21T07:46:09.598Z,8.9
2019-02-21T07:47:10.274Z,8.9
2019-02-21T07:48:10.950Z,9.0
2019-02-21T07:49:11.627Z,9.0
2019-02-21T07:50:12.305Z,9.0
2019-02-21T07:51:13.647Z,9.0
2019-02-21T07:52:14.314Z,9.1
2019-02-21T07:53:14.989Z,9.0
2019-02-21T07:54:15.663Z,9.1
2019-02-21T07:55:16.342Z,9.2
2019-02-21T07:56:17.018Z,9.2
2019-02-21T07:57:17.696Z,9.2
2019-02-21T07:58:18.376Z,9.2
2019-02-21T07:59:19.049Z,9.1
2019-02-21T08:00:19.725Z,9.1
2019-02-21T08:01:20.415Z,9.0
2019-02-21T08:02:21.160Z,9.1
2019-02-21T08:03:29.942Z,9.1
2019-02-21T08:04:22.616Z,9.0
2019-02-21T08:05:23.768Z,8.9
2019-02-21T08:06:24.472Z,9.1
2019-02-21T08:07:26.379Z,9.1
2019-02-21T08:08:26.819Z,9.1
2019-02-21T08:09:28.070Z,9.2
2019-02-21T08:10:33.491Z,9.3
2019-02-21T08:11:29.889Z,9.3
2019-02-21T08:12:30.566Z,9.5
2019-02-21T08:13:31.246Z,9.5
2019-02-21T08:14:31.922Z,9.7
2019-02-21T08:15:32.599Z,9.6
2019-02-21T08:16:33.276Z,9.7
2019-02-21T08:17:33.955Z,9.7
2019-02-21T08:18:34.631Z,9.7
2019-02-21T08:19:35.310Z,9.7
2019-02-21T08:20:40.610Z,9.7
2019-02-21T08:21:37.774Z,9.6
2019-02-21T08:22:38.371Z,9.5
2019-02-21T08:23:49.709Z,9.6
2019-02-21T08:24:39.769Z,9.7
2019-02-21T08:25:40.447Z,9.7
2019-02-21T08:26:41.126Z,9.7
2019-02-21T08:27:42.598Z,9.8
2019-02-21T08:28:43.340Z,9.8
2019-02-21T08:29:44.017Z,9.9
2019-02-21T08:30:44.695Z,10.1
2019-02-21T08:31:45.375Z,10.3
2019-02-21T08:32:46.057Z,10.5
2019-02-21T08:33:57.598Z,10.6
2019-02-21T08:34:48.482Z,10.8
2019-02-21T08:35:49.170Z,10.8
2019-02-21T08:36:49.849Z,10.9
2019-02-21T08:37:50.580Z,11.0
2019-02-21T08:38:51.259Z,11.1
2019-02-21T08:39:51.985Z,11.2
2019-02-21T08:40:53.418Z,11.2
2019-02-21T08:41:55.177Z,11.2
2019-02-21T08:42:55.923Z,11.3
2019-02-21T08:43:57.397Z,11.1
2019-02-21T08:44:58.192Z,11.2
2019-02-21T08:45:58.872Z,11.2
2019-02-21T08:46:59.550Z,11.2
2019-02-21T08:48:00.279Z,11.3
2019-02-21T08:49:00.950Z,11.1
2019-02-21T08:50:01.629Z,11.1
2019-02-21T08:51:02.307Z,11.0
2019-02-21T08:52:02.991Z,11.0
2019-02-21T08:53:03.667Z,10.9
2019-02-21T08:54:05.684Z,10.7
2019-02-21T08:55:06.015Z,10.7
2019-02-21T08:56:06.692Z,10.7
2019-02-21T08:57:07.371Z,10.7
2019-02-21T08:58:08.108Z,10.6
2019-02-21T08:59:08.759Z,10.6
2019-02-21T09:00:10.973Z,10.5
2019-02-21T09:01:11.115Z,10.6
2019-02-21T09:02:11.839Z,10.5
2019-02-21T09:03:12.524Z,10.6
2019-02-21T09:04:26.395Z,10.6
2019-02-21T09:05:14.872Z,10.5
2019-02-21T09:06:15.544Z,10.6
2019-02-21T09:07:16.224Z,10.6
2019-02-21T09:08:16.980Z,10.6
2019-02-21T09:09:17.624Z,10.5
2019-02-21T09:10:18.302Z,10.6
2019-02-21T09:11:19.786Z,10.6
2019-02-21T09:12:19.702Z,10.5
2019-02-21T09:13:20.383Z,10.7
2019-02-21T09:14:21.063Z,10.7
2019-02-21T09:15:21.745Z,10.8
2019-02-21T09:16:22.424Z,10.8
2019-02-21T09:17:23.104Z,10.9
2019-02-21T09:18:23.784Z,10.9
2019-02-21T09:19:24.513Z,11.1
2019-02-21T09:20:25.193Z,11.0
2019-02-21T09:21:25.870Z,11.0
2019-02-21T09:22:26.588Z,11.0
2019-02-21T09:23:27.232Z,11.0
2019-02-21T09:24:38.077Z,11.0
2019-02-21T09:25:29.581Z,11.0
2019-02-21T09:26:30.262Z,10.9
2019-02-21T09:27:30.960Z,11.0
2019-02-21T09:28:31.682Z,10.9
2019-02-21T09:29:32.355Z,11.0
2019-02-21T09:30:33.038Z,10.9
2019-02-21T09:31:33.725Z,10.9
2019-02-21T09:32:34.395Z,10.9
2019-02-21T09:33:37.123Z,10.8
2019-02-21T09:34:36.743Z,10.8
2019-02-21T09:35:37.422Z,10.8
2019-02-21T09:36:38.100Z,10.7
2019-02-21T09:37:38.780Z,10.7
2019-02-21T09:38:39.459Z,10.7
2019-02-21T09:39:40.137Z,10.7
2019-02-21T09:40:42.677Z,10.7
2019-02-21T09:41:42.486Z,10.7
2019-02-21T09:42:43.164Z,10.8
2019-02-21T09:43:43.843Z,10.7
2019-02-21T09:44:44.523Z,10.7
2019-02-21T09:45:45.225Z,10.7
2019-02-21T09:46:45.881Z,10.6
2019-02-21T09:47:46.560Z,10.7
2019-02-21T09:48:47.239Z,10.8
2019-02-21T09:49:47.920Z,10.7
2019-02-21T09:50:48.598Z,10.8
2019-02-21T09:51:49.279Z,10.8
2019-02-21T09:52:49.970Z,10.7
2019-02-21T09:53:50.688Z,10.8
2019-02-21T09:54:51.369Z,10.7
2019-02-21T09:55:52.051Z,10.9
2019-02-21T09:56:53.292Z,10.9
2019-02-21T09:57:53.987Z,10.9
2019-02-21T09:58:54.666Z,10.9
2019-02-21T09:59:55.347Z,11.0
2019-02-21T10:00:56.027Z,11.0
2019-02-21T10:01:57.595Z,11.0
2019-02-21T10:02:58.379Z,11.1
2019-02-21T10:03:59.062Z,11.1
2019-02-21T10:05:05.166Z,11.1
2019-02-21T10:06:01.462Z,11.1
2019-02-21T10:07:02.143Z,11.1
2019-02-21T10:08:02.870Z,11.1
2019-02-21T10:09:03.553Z,11.1
2019-02-21T10:10:04.233Z,11.1
2019-02-21T10:11:04.909Z,11.2
2019-02-21T10:12:05.591Z,11.3
2019-02-21T10:13:06.272Z,11.3
2019-02-21T10:14:07.001Z,11.4
2019-02-21T10:15:07.681Z,11.4
2019-02-21T10:16:08.363Z,11.6
2019-02-21T10:17:09.043Z,11.6
2019-02-21T10:18:09.723Z,11.6
2019-02-21T10:19:10.401Z,11.6
2019-02-21T10:20:11.081Z,11.7
2019-02-21T10:21:11.763Z,11.7
2019-02-21T10:22:12.446Z,11.6
2019-02-21T10:23:13.175Z,11.7
2019-02-21T10:24:13.855Z,11.7
2019-02-21T10:25:14.538Z,11.9
2019-02-21T10:26:15.216Z,11.9
2019-02-21T10:27:15.899Z,11.9
2019-02-21T10:28:16.576Z,11.9
2019-02-21T10:29:17.256Z,11.9
2019-02-21T10:30:17.939Z,11.9
2019-02-21T10:31:18.619Z,11.9
2019-02-21T10:32:19.300Z,11.8
2019-02-21T10:33:19.980Z,11.7
2019-02-21T10:34:21.821Z,11.7
2019-02-21T10:35:21.383Z,11.7
2019-02-21T10:36:22.063Z,11.6
2019-02-21T10:37:22.742Z,11.6
2019-02-21T10:38:23.423Z,11.5
2019-02-21T10:39:24.105Z,11.6
2019-02-21T10:40:24.818Z,11.5
2019-02-21T10:41:25.498Z,11.4
2019-02-21T10:42:26.187Z,11.6
2019-02-21T10:43:26.919Z,11.5
2019-02-21T10:44:27.639Z,11.6
2019-02-21T10:45:28.317Z,11.7
2019-02-21T10:46:30.835Z,11.7
2019-02-21T10:47:30.673Z,11.7
2019-02-21T10:48:31.353Z,11.7
2019-02-21T10:49:32.035Z,11.8
2019-02-21T10:50:32.716Z,11.9
2019-02-21T10:51:33.396Z,11.8
2019-02-21T10:52:34.076Z,11.9
2019-02-21T10:53:34.757Z,11.9
2019-02-21T10:54:35.446Z,12.0
2019-02-21T10:55:36.121Z,12.0
2019-02-21T10:56:36.800Z,12.1
2019-02-21T10:57:37.482Z,12.1
2019-02-21T10:58:38.163Z,12.1
2019-02-21T10:59:46.178Z,12.0
2019-02-21T11:00:40.518Z,12.0
2019-02-21T11:01:41.202Z,12.0
2019-02-21T11:02:41.879Z,12.0
2019-02-21T11:03:42.564Z,12.0
2019-02-21T11:04:54.069Z,12.1
2019-02-21T11:05:44.922Z,12.1
2019-02-21T11:06:45.647Z,12.0
2019-02-21T11:07:46.375Z,12.1
2019-02-21T11:08:47.060Z,12.2
2019-02-21T11:09:47.738Z,12.2
2019-02-21T11:10:48.419Z,12.2
2019-02-21T11:11:49.101Z,12.1
2019-02-21T11:12:49.832Z,12.2
2019-02-21T11:13:50.562Z,12.1
2019-02-21T11:14:51.293Z,11.9
2019-02-21T11:15:51.974Z,11.9
2019-02-21T11:16:52.706Z,11.8
2019-02-21T11:17:53.385Z,11.8
2019-02-21T11:18:54.065Z,11.8
2019-02-21T11:19:54.748Z,11.8
2019-02-21T11:20:55.428Z,11.7
2019-02-21T11:21:56.109Z,11.8
2019-02-21T11:22:56.789Z,11.7
2019-02-21T11:23:57.475Z,11.7
2019-02-21T11:24:58.200Z,11.8
2019-02-21T11:25:58.881Z,11.8
2019-02-21T11:26:59.561Z,11.9
2019-02-21T11:28:00.276Z,12.0
2019-02-21T11:29:00.953Z,12.2
2019-02-21T11:30:01.638Z,12.1
2019-02-21T11:31:02.314Z,12.2
2019-02-21T11:32:02.999Z,12.2
2019-02-21T11:33:03.678Z,12.1
2019-02-21T11:34:04.357Z,12.1
2019-02-21T11:35:06.511Z,12.2
2019-02-21T11:36:06.760Z,12.2
2019-02-21T11:37:07.493Z,12.3
2019-02-21T11:38:08.225Z,12.2
2019-02-21T11:39:08.903Z,12.2
2019-02-21T11:40:09.584Z,12.2
2019-02-21T11:41:10.264Z,12.2
2019-02-21T11:42:10.947Z,12.3
2019-02-21T11:43:11.628Z,12.2
2019-02-21T11:44:12.310Z,12.2
2019-02-21T11:45:13.041Z,12.2
2019-02-21T11:46:13.726Z,12.3
2019-02-21T11:47:14.410Z,12.3
2019-02-21T11:48:15.089Z,12.3
2019-02-21T11:49:15.764Z,12.2
2019-02-21T11:50:16.444Z,12.2
2019-02-21T11:51:17.128Z,12.2
2019-02-21T11:52:17.822Z,12.2
2019-02-21T11:53:18.493Z,12.3
2019-02-21T11:54:26.572Z,12.3
2019-02-21T11:55:20.847Z,12.4
2019-02-21T11:56:21.575Z,12.4
2019-02-21T11:57:22.256Z,12.4
2019-02-21T11:58:22.936Z,12.4
2019-02-21T11:59:23.617Z,12.4
2019-02-21T12:00:24.301Z,12.4
2019-02-21T12:01:25.030Z,12.3
2019-02-21T12:02:25.759Z,12.6
2019-02-21T12:03:26.442Z,12.7
2019-02-21T12:04:27.124Z,12.8
2019-02-21T12:05:31.478Z,12.8
2019-02-21T12:06:29.391Z,12.8
2019-02-21T12:07:30.073Z,12.8
2019-02-21T12:08:30.755Z,12.8
2019-02-21T12:09:31.436Z,12.8
2019-02-21T12:10:32.118Z,12.8
2019-02-21T12:11:32.798Z,12.9
2019-02-21T12:12:33.478Z,12.8
2019-02-21T12:13:34.161Z,12.7
2019-02-21T12:14:34.840Z,12.8
2019-02-21T12:15:35.523Z,12.9
2019-02-21T12:16:36.204Z,12.8
2019-02-21T12:17:36.885Z,12.8
2019-02-21T12:18:37.568Z,12.6
2019-02-21T12:19:38.295Z,12.6
2019-02-21T12:20:38.988Z,12.6
2019-02-21T12:21:39.706Z,12.5
2019-02-21T12:22:40.386Z,12.5
2019-02-21T12:23:41.066Z,12.5
2019-02-21T12:24:41.795Z,12.5
2019-02-21T12:25:42.477Z,12.5
2019-02-21T12:26:43.157Z,12.4
2019-02-21T12:27:43.841Z,12.5
2019-02-21T12:28:44.521Z,12.5
2019-02-21T12:29:45.201Z,12.4
2019-02-21T12:30:45.882Z,12.5
2019-02-21T12:31:46.564Z,12.5
2019-02-21T12:32:47.245Z,12.4
2019-02-21T12:33:47.978Z,12.5
2019-02-21T12:34:48.654Z,12.6
2019-02-21T12:35:49.333Z,12.6
2019-02-21T12:36:50.015Z,12.5
2019-02-21T12:37:50.696Z,12.5
2019-02-21T12:38:51.378Z,12.6
2019-02-21T12:39:52.060Z,12.6
2019-02-21T12:40:52.742Z,12.7
2019-02-21T12:41:53.428Z,12.6
2019-02-21T12:42:54.101Z,12.7
2019-02-21T12:43:54.829Z,12.7
2019-02-21T12:44:55.514Z,12.7
2019-02-21T12:45:56.190Z,12.9
2019-02-21T12:46:56.871Z,12.7
2019-02-21T12:47:57.552Z,12.9
2019-02-21T12:48:58.231Z,12.8
2019-02-21T12:49:58.912Z,13.0
2019-02-21T12:50:59.641Z,13.1
2019-02-21T12:52:00.321Z,13.0
2019-02-21T12:53:01.003Z,13.2
2019-02-21T12:54:01.693Z,13.2
2019-02-21T12:55:02.418Z,13.2
2019-02-21T12:56:03.100Z,13.2
2019-02-21T12:57:03.780Z,13.2
2019-02-21T12:58:04.514Z,13.3
2019-02-21T12:59:05.242Z,13.3
2019-02-21T13:00:05.937Z,13.4
2019-02-21T13:01:06.606Z,13.3
2019-02-21T13:02:07.287Z,13.2
2019-02-21T13:03:07.970Z,13.1
2019-02-21T13:04:08.652Z,13.1
2019-02-21T13:05:09.342Z,13.1
2019-02-21T13:06:10.013Z,13.2
2019-02-21T13:07:10.694Z,13.2
2019-02-21T13:08:11.383Z,13.2
2019-02-21T13:09:12.058Z,13.2
2019-02-21T13:10:12.743Z,13.2
2019-02-21T13:11:13.424Z,13.2
2019-02-21T13:12:14.107Z,13.2
2019-02-21T13:13:14.786Z,13.1
2019-02-21T13:14:15.465Z,13.3
2019-02-21T13:15:16.194Z,13.4
2019-02-21T13:16:16.871Z,13.3
2019-02-21T13:17:17.554Z,13.5
2019-02-21T13:18:18.239Z,13.5
2019-02-21T13:19:18.972Z,13.6
2019-02-21T13:20:19.748Z,13.6
2019-02-21T13:21:20.424Z,13.5
2019-02-21T13:22:21.106Z,13.5
2019-02-21T13:23:21.794Z,13.5
2019-02-21T13:24:22.471Z,13.5
2019-02-21T13:25:23.155Z,13.5
2019-02-21T13:26:23.832Z,13.6
2019-02-21T13:27:24.513Z,13.6
2019-02-21T13:28:25.195Z,13.6
2019-02-21T13:29:25.881Z,13.6
2019-02-21T13:30:26.560Z,13.7
2019-02-21T13:31:27.242Z,13.5
2019-02-21T13:32:27.922Z,13.5
2019-02-21T13:33:28.603Z,13.3
2019-02-21T13:34:29.284Z,13.5
2019-02-21T13:35:29.968Z,13.5
2019-02-21T13:36:30.650Z,13.6
2019-02-21T13:37:31.332Z,13.5
2019-02-21T13:38:32.014Z,13.5
2019-02-21T13:39:32.711Z,13.4
2019-02-21T13:40:33.376Z,13.3
2019-02-21T13:41:34.056Z,13.3
2019-02-21T13:42:34.739Z,13.5
2019-02-21T13:43:35.422Z,13.5
2019-02-21T13:44:36.108Z,13.5
2019-02-21T13:45:36.786Z,13.6
2019-02-21T13:46:40.855Z,13.7